Maykop, Russia

7:28 PM MSK on October 02, 2014 (GMT +0400)
Pashkovsky | Change Station
CLOSE
Current Station
Airport
Location: Krasnodar,
Elevation: 112 ft
Nearby Weather Stations

Elev 112 ft 45.03 °N, 39.15 °E | Updated 28 minutes ago

Clear
Clear
55 °F
Feels Like 55 °F
N
11
Wind Variable Wind from NE

Today
High -- | Low -- °F
--% Chance of Precip.
Yesterday
High -- | Low -- °F
Precip. -- in
7:18 AM 6:59 PM
First Quarter, 59% visible
Pressure 30.36 in
Visibility -9999.0 miles
Clouds
Dew Point 30 °F
Humidity 38%
Rainfall 0.00 in
Snow Depth Not available.
UV Not available.
Pollen Not available.
Air Quality Not available.
Flu Activity Not available.
METAR URKK 021500Z 04005MPS CAVOK 13/M01 Q1028 NOSIG RMK QFE767 SC070

More Conditions Fewer Conditions

Pressure 30.36 in
Visibility -9999.0 miles
Clouds
Dew Point 30 °F
Humidity 38%
Rainfall 0.00 in
Snow Depth Not available.
UV Not available.
Pollen Not available.
Air Quality Not available.
Flu Activity Not available.
METAR URKK 021500Z 04005MPS CAVOK 13/M01 Q1028 NOSIG RMK QFE767 SC070

More Conditions Fewer Conditions

10-Day Weather Forecast

Almanac

Astronomy

Oct. 02, 2014 Rise Set
Actual Time 7:18 AM MSK 6:59 PM MSK
Civil Twilight 6:49 AM MSK 7:28 PM MSK
Nautical Twilight 6:15 AM MSK 8:01 PM MSK
Astronomical Twilight 5:41 AM MSK 8:36 PM MSK
Moon 3:00 PM MSK No Moon Set
Length of Visible Light 12h 38m
Length of Day
11h 40m
Tomorrow will be 3m 4s shorter.
First Quarter, 59% of the Moon is Illuminated
Today
First Quarter
Oct 8
Full
Oct 15
Last Quarter
Oct 23
New
Oct 30
First Quarter

Today's Extremes

Country Highs Country Lows

Community

WunderPhotos

Upload Photos

1,758,255 photos uploaded!

WunderBlogs® & News

By Dr. Jeff Masters
Director of Meteorology, Weather Underground
By Kari Strenfel
Meteorologist, Weather Underground
By Christopher C. Burt
Weather Historian, Weather Underground
October 2, 2014
October 2, 2014
October 2, 2014

Nearby

Snow Depth

Not available.

Earthquake Activity

City Distance Mag. Time & Date
No recent earthquake activity has been reported nearby.
Minimum magnitude displayed is 2.5.

Coastal Water Temperatures

Place Temperature
No Stations Reporting

Nearby Weather Stations